Grissom ARB Airport
KGUS : now visible

Airfield :











YOU CAN JOIN US ON...

 
LOGIN :

Register | Disclaimer

   EN    FR    IT 

 









Legend :    VFR   Marginal VFR   IFR   Intensive IFR   Very Intensive IFR
Visi :
Ceiling :
>= 8 km
>= 3000ft
5 to 8 km
1000 to 3000 ft
1500m to 5 km
500 to 1000 ft
800 to 1500m
200 to 500 ft
< 800m
< 200 ft
Symbols :   Thunderstorms  Fog  Heavy snow  Heavy precipitations  Wind > 20 kt






- Airport Elevation : 812 ft


KGUS - Grissom ARB

CURRENT METAR :
  • 082056Z AUTO 30009KT 10SM FEW032 02/M06 A2996 RMK AO2 SLP158 T00161060 50003 $

EXPIRED METARs :
  • 081956Z AUTO 27014KT 10SM BKN030 03/M05 A2997 RMK AO2 SLP160 T00261053 $
  • 081941Z AUTO 29011KT 10SM SCT028 SCT033 02/M05 A2996 RMK AO2 SLP158 $
  • 081901Z AUTO 29010KT 10SM BKN025 02/M05 A2995 RMK AO2 SLP154 $
  • 081856Z AUTO 29012KT 10SM SCT024 02/M05 A2995 RMK AO2 SLP154 T00181051 $
  • 081756Z AUTO 26014KT 10SM OVC022 01/M05 A2995 RMK AO2 SLP155 T00061054 10012 21058 50003 $

TAF TAF KGUS
Valid from the 08 at 13:00 until the 09 at 19:00 UTC


081300Z 0813/0919 20005KT 9999 FEW060 FEW085 BKN120 QNH2995INS
BECMG 0817/0818 26015G25KT 9999 SKC QNH2994INS
BECMG 0820/0821 29010G15KT 9999 SKC QNH2997INS
BECMG 0823/0824 VRB05KT 9999 FEW180 QNH2993INS
BECMG 0916/0917 13012KT 9999 FEW070 FEW095 SCT150 QNH2993INS
BECMG 0917/0918 15020G25KT 9999 FEW035 BKN050 OVC075 QNH2977INS TX05/0917Z TNM03/0813Z
KZAU FIR / North America



MET'MAP, your aeronautical weather chart ! - Copyright ORBIFLY December 2007 - Disclaimer

ORBIFLY MET'MAP TEAM :

Programming & Development : Alexandra Zaïnal
Concept & original design : Baudouin d'Aumeries
Assistance for programming : Marc-Olivier Méhu
Technical & hardware support : Manuel Goepfert

Contact : metmap@orbifly.com




SOURCES & CREDITS :

   NOAA       Earth
Advisory